Hattiesburg Laurel Regional Airport Hattiesburg,Laurel US
ICAO: KPIB
IATA: PIB
Category: Medium
Scheduled Services: Yes

Elevation: 298 ft
TransAlt. 18000 ft.

Airport Communications:
AWOS 3:128.325
HOUSTON CNTR:126.8
CTAF/UNICOM:123

KPIB Zoom In..

Runways:

(A) RW 18 length 6502 ft width 150 ft
ILS 109.50 / hdg 181

(B) RW 36 length 6502 ft width 150 ft
---- / hdg 1

Location; KPIB
Day. 21 / Time. 05.56 Zulu
* Altimeter: 29.94
* Temperature: 26° c. 78.8°f.
* Wind from: 000° Speed 00 kn.
Dewpoint: 26° c.
Visibility: 7 Statute Miles.
Clouds: Clear (automated report).

KPIB 210556Z AUTO 00000KT 7SM CLR 26/26 A2994 RMK AO2 SLP136 T02610256 10322 20261 403610228 56003


Wind - Calm.

 
 
jpsmedia.com for Web Design worldairports.se 2018   terms of use